sensor_id;sensor_type;location;lat;lon;timestamp;pressure;altitude;pressure_sealevel;temperature;humidity
51715;BME280;39115;59.332;18.034;2022-10-26T00:00:21;100130.00;;;11.30;69.95
51715;BME280;39115;59.332;18.034;2022-10-26T00:02:47;100144.63;;;11.26;69.98
51715;BME280;39115;59.332;18.034;2022-10-26T00:05:12;100142.13;;;11.25;69.73
51715;BME280;39115;59.332;18.034;2022-10-26T00:07:38;100143.09;;;11.23;70.17
51715;BME280;39115;59.332;18.034;2022-10-26T00:10:03;100141.44;;;11.22;70.08
51715;BME280;39115;59.332;18.034;2022-10-26T00:12:28;100143.41;;;11.20;70.10
51715;BME280;39115;59.332;18.034;2022-10-26T00:14:54;100139.91;;;11.20;69.74
51715;BME280;39115;59.332;18.034;2022-10-26T00:17:19;100140.91;;;11.19;70.09
51715;BME280;39115;59.332;18.034;2022-10-26T00:19:44;100137.41;;;11.18;69.89
51715;BME280;39115;59.332;18.034;2022-10-26T00:22:10;100145.41;;;11.18;69.69
51715;BME280;39115;59.332;18.034;2022-10-26T00:24:35;100140.91;;;11.19;69.88
51715;BME280;39115;59.332;18.034;2022-10-26T00:27:00;100154.22;;;11.19;69.93
51715;BME280;39115;59.332;18.034;2022-10-26T00:29:25;100156.72;;;11.20;70.28
51715;BME280;39115;59.332;18.034;2022-10-26T00:31:51;100154.91;;;11.21;70.11
51715;BME280;39115;59.332;18.034;2022-10-26T00:34:16;100153.22;;;11.20;69.76
51715;BME280;39115;59.332;18.034;2022-10-26T00:36:41;100162.03;;;11.20;70.13
51715;BME280;39115;59.332;18.034;2022-10-26T00:39:09;100162.22;;;11.19;70.06
51715;BME280;39115;59.332;18.034;2022-10-26T00:41:36;100163.19;;;11.18;70.35
51715;BME280;39115;59.332;18.034;2022-10-26T00:44:37;100164.06;;;11.18;70.14
51715;BME280;39115;59.332;18.034;2022-10-26T00:46:46;100164.06;;;11.18;69.77
51715;BME280;39115;59.332;18.034;2022-10-26T00:49:14;100163.53;;;11.15;70.02
51715;BME280;39115;59.332;18.034;2022-10-26T00:51:44;100161.16;;;11.12;70.29
51715;BME280;39115;59.332;18.034;2022-10-26T00:54:12;100168.44;;;11.10;70.19
51715;BME280;39115;59.332;18.034;2022-10-26T00:56:40;100161.44;;;11.08;70.16
51715;BME280;39115;59.332;18.034;2022-10-26T00:59:07;100162.47;;;11.07;70.38
51715;BME280;39115;59.332;18.034;2022-10-26T01:01:34;100168.78;;;11.06;70.28
51715;BME280;39115;59.332;18.034;2022-10-26T01:04:00;100170.75;;;11.04;69.92
51715;BME280;39115;59.332;18.034;2022-10-26T01:06:29;100171.88;;;11.02;70.45
51715;BME280;39115;59.332;18.034;2022-10-26T01:08:55;100178.34;;;10.99;70.12
51715;BME280;39115;59.332;18.034;2022-10-26T01:11:20;100187.47;;;10.97;70.26
51715;BME280;39115;59.332;18.034;2022-10-26T01:13:45;100168.16;;;10.95;70.44
51715;BME280;39115;59.332;18.034;2022-10-26T01:16:28;100178.81;;;10.95;70.29
51715;BME280;39115;59.332;18.034;2022-10-26T01:27:26;100177.50;;;10.81;70.40
51715;BME280;39115;59.332;18.034;2022-10-26T01:32:26;100193.38;;;10.72;69.96
51715;BME280;39115;59.332;18.034;2022-10-26T01:35:03;100186.53;;;10.70;70.35
51715;BME280;39115;59.332;18.034;2022-10-26T01:37:31;100192.28;;;10.65;70.04
51715;BME280;39115;59.332;18.034;2022-10-26T01:40:01;100190.94;;;10.61;70.52
51715;BME280;39115;59.332;18.034;2022-10-26T01:42:27;100197.34;;;10.58;70.27
51715;BME280;39115;59.332;18.034;2022-10-26T01:44:55;100191.22;;;10.58;70.45
51715;BME280;39115;59.332;18.034;2022-10-26T01:47:22;100196.00;;;10.54;70.47
51715;BME280;39115;59.332;18.034;2022-10-26T01:49:51;100189.16;;;10.52;70.53
51715;BME280;39115;59.332;18.034;2022-10-26T01:52:17;100198.94;;;10.51;70.43
51715;BME280;39115;59.332;18.034;2022-10-26T01:54:43;100194.75;;;10.49;70.32
51715;BME280;39115;59.332;18.034;2022-10-26T01:57:10;100196.59;;;10.48;70.27
51715;BME280;39115;59.332;18.034;2022-10-26T02:15:31;100207.94;;;10.40;70.04
51715;BME280;39115;59.332;18.034;2022-10-26T02:18:08;100214.13;;;10.41;70.30
51715;BME280;39115;59.332;18.034;2022-10-26T02:20:39;100226.41;;;10.42;70.33
51715;BME280;39115;59.332;18.034;2022-10-26T02:23:06;100226.59;;;10.40;70.20
51715;BME280;39115;59.332;18.034;2022-10-26T02:25:32;100222.25;;;10.39;70.32
51715;BME280;39115;59.332;18.034;2022-10-26T02:28:04;100223.22;;;10.38;70.18
51715;BME280;39115;59.332;18.034;2022-10-26T02:30:31;100229.41;;;10.39;70.41
51715;BME280;39115;59.332;18.034;2022-10-26T02:32:57;100228.53;;;10.38;70.42
51715;BME280;39115;59.332;18.034;2022-10-26T02:35:28;100226.88;;;10.37;70.77
51715;BME280;39115;59.332;18.034;2022-10-26T02:37:54;100234.97;;;10.36;70.99
51715;BME280;39115;59.332;18.034;2022-10-26T02:40:21;100237.63;;;10.36;70.64
51715;BME280;39115;59.332;18.034;2022-10-26T02:42:48;100237.63;;;10.36;70.43
51715;BME280;39115;59.332;18.034;2022-10-26T02:45:18;100244.78;;;10.35;70.31
51715;BME280;39115;59.332;18.034;2022-10-26T02:47:45;100253.91;;;10.33;70.54
51715;BME280;39115;59.332;18.034;2022-10-26T02:50:10;100246.19;;;10.29;70.59
51715;BME280;39115;59.332;18.034;2022-10-26T02:55:21;100251.66;;;10.28;70.81
51715;BME280;39115;59.332;18.034;2022-10-26T02:57:49;100262.31;;;10.28;70.76
51715;BME280;39115;59.332;18.034;2022-10-26T03:00:16;100257.13;;;10.26;70.67
51715;BME280;39115;59.332;18.034;2022-10-26T03:02:42;100252.91;;;10.24;70.07
51715;BME280;39115;59.332;18.034;2022-10-26T03:05:09;100246.94;;;10.22;70.76
51715;BME280;39115;59.332;18.034;2022-10-26T03:07:37;100257.56;;;10.22;70.87
51715;BME280;39115;59.332;18.034;2022-10-26T03:10:02;100264.84;;;10.20;70.81
51715;BME280;39115;59.332;18.034;2022-10-26T03:12:28;100262.47;;;10.17;70.69
51715;BME280;39115;59.332;18.034;2022-10-26T03:14:53;100268.75;;;10.16;70.57
51715;BME280;39115;59.332;18.034;2022-10-26T03:17:18;100261.09;;;10.12;70.86
51715;BME280;39115;59.332;18.034;2022-10-26T03:19:44;100266.69;;;10.09;70.58
51715;BME280;39115;59.332;18.034;2022-10-26T03:22:09;100259.84;;;10.07;70.81
51715;BME280;39115;59.332;18.034;2022-10-26T03:24:34;100272.44;;;10.05;70.87
51715;BME280;39115;59.332;18.034;2022-10-26T03:26:59;100268.09;;;10.04;70.72
51715;BME280;39115;59.332;18.034;2022-10-26T03:29:25;100280.41;;;10.05;70.09
51715;BME280;39115;59.332;18.034;2022-10-26T03:31:50;100285.72;;;10.05;70.39
51715;BME280;39115;59.332;18.034;2022-10-26T03:34:18;100286.56;;;10.05;70.84
51715;BME280;39115;59.332;18.034;2022-10-26T03:36:43;100293.03;;;10.03;70.59
51715;BME280;39115;59.332;18.034;2022-10-26T03:39:09;100298.63;;;10.00;70.76
51715;BME280;39115;59.332;18.034;2022-10-26T03:41:34;100307.41;;;10.00;70.21
51715;BME280;39115;59.332;18.034;2022-10-26T03:43:59;100292.47;;;9.99;70.76
51715;BME280;39115;59.332;18.034;2022-10-26T03:46:24;100297.63;;;10.01;71.05
51715;BME280;39115;59.332;18.034;2022-10-26T03:48:50;100301.28;;;10.00;70.81
51715;BME280;39115;59.332;18.034;2022-10-26T03:51:15;100303.09;;;9.99;70.63
51715;BME280;39115;59.332;18.034;2022-10-26T03:53:40;100300.56;;;9.97;70.83
51715;BME280;39115;59.332;18.034;2022-10-26T03:56:06;100300.56;;;9.97;70.34
51715;BME280;39115;59.332;18.034;2022-10-26T03:58:31;100311.34;;;9.96;70.78
51715;BME280;39115;59.332;18.034;2022-10-26T04:00:56;100313.88;;;9.97;70.90
51715;BME280;39115;59.332;18.034;2022-10-26T04:03:22;100309.53;;;9.96;70.76
51715;BME280;39115;59.332;18.034;2022-10-26T04:05:47;100320.16;;;9.96;70.63
51715;BME280;39115;59.332;18.034;2022-10-26T04:08:12;100318.63;;;9.94;70.60
51715;BME280;39115;59.332;18.034;2022-10-26T04:10:38;100336.69;;;9.90;70.82
51715;BME280;39115;59.332;18.034;2022-10-26T04:13:03;100324.50;;;9.88;70.71
51715;BME280;39115;59.332;18.034;2022-10-26T04:15:28;100331.78;;;9.86;70.94
51715;BME280;39115;59.332;18.034;2022-10-26T04:17:54;100333.59;;;9.85;70.62
51715;BME280;39115;59.332;18.034;2022-10-26T04:20:20;100331.78;;;9.86;70.88
51715;BME280;39115;59.332;18.034;2022-10-26T04:22:45;100333.47;;;9.87;71.14
51715;BME280;39115;59.332;18.034;2022-10-26T04:25:10;100332.47;;;9.88;70.71
51715;BME280;39115;59.332;18.034;2022-10-26T04:27:37;100336.13;;;9.87;70.53
51715;BME280;39115;59.332;18.034;2022-10-26T04:30:02;100337.94;;;9.86;70.94
51715;BME280;39115;59.332;18.034;2022-10-26T04:32:29;100360.19;;;9.85;70.88
51715;BME280;39115;59.332;18.034;2022-10-26T04:34:54;100347.03;;;9.84;70.59
51715;BME280;39115;59.332;18.034;2022-10-26T04:37:20;100344.50;;;9.82;70.50
51715;BME280;39115;59.332;18.034;2022-10-26T04:39:45;100357.09;;;9.80;70.63
51715;BME280;39115;59.332;18.034;2022-10-26T04:42:10;100354.59;;;9.78;70.92
51715;BME280;39115;59.332;18.034;2022-10-26T04:44:36;100343.13;;;9.78;70.89
51715;BME280;39115;59.332;18.034;2022-10-26T04:47:01;100360.31;;;9.74;70.46
51715;BME280;39115;59.332;18.034;2022-10-26T04:49:26;100362.16;;;9.73;70.80
51715;BME280;39115;59.332;18.034;2022-10-26T04:51:52;100360.59;;;9.71;70.81
51715;BME280;39115;59.332;18.034;2022-10-26T04:54:17;100366.03;;;9.69;71.15
51715;BME280;39115;59.332;18.034;2022-10-26T04:56:42;100367.00;;;9.68;71.14
51715;BME280;39115;59.332;18.034;2022-10-26T04:59:08;100366.03;;;9.69;71.12
51715;BME280;39115;59.332;18.034;2022-10-26T05:01:33;100373.19;;;9.69;71.14
51715;BME280;39115;59.332;18.034;2022-10-26T05:03:58;100371.66;;;9.66;70.43
51715;BME280;39115;59.332;18.034;2022-10-26T05:06:24;100377.09;;;9.64;70.45
51715;BME280;39115;59.332;18.034;2022-10-26T05:08:49;100380.59;;;9.65;71.21
51715;BME280;39115;59.332;18.034;2022-10-26T05:11:14;100387.03;;;9.62;71.23
51715;BME280;39115;59.332;18.034;2022-10-26T05:13:40;100393.47;;;9.60;71.04
51715;BME280;39115;59.332;18.034;2022-10-26T05:16:05;100393.47;;;9.60;70.85
51715;BME280;39115;59.332;18.034;2022-10-26T05:18:30;100395.13;;;9.61;70.60
51715;BME280;39115;59.332;18.034;2022-10-26T05:20:56;100403.81;;;9.63;70.96
51715;BME280;39115;59.332;18.034;2022-10-26T05:23:21;100408.28;;;9.62;70.73
51715;BME280;39115;59.332;18.034;2022-10-26T05:25:47;100413.59;;;9.62;71.08
51715;BME280;39115;59.332;18.034;2022-10-26T05:28:13;100418.06;;;9.62;70.44
51715;BME280;39115;59.332;18.034;2022-10-26T05:30:41;100420.03;;;9.60;71.02
51715;BME280;39115;59.332;18.034;2022-10-26T05:33:08;100412.47;;;9.55;70.74
51715;BME280;39115;59.332;18.034;2022-10-26T05:35:33;100430.63;;;9.50;71.06
51715;BME280;39115;59.332;18.034;2022-10-26T05:37:59;100434.41;;;9.47;70.65
51715;BME280;39115;59.332;18.034;2022-10-26T05:40:24;100428.50;;;9.44;71.02
51715;BME280;39115;59.332;18.034;2022-10-26T05:42:50;100440.09;;;9.43;71.11
51715;BME280;39115;59.332;18.034;2022-10-26T05:45:15;100445.72;;;9.40;71.05
51715;BME280;39115;59.332;18.034;2022-10-26T05:47:42;100434.38;;;9.38;70.64
51715;BME280;39115;59.332;18.034;2022-10-26T05:50:09;100446.94;;;9.36;70.79
51715;BME280;39115;59.332;18.034;2022-10-26T05:52:38;100450.44;;;9.36;71.18
51715;BME280;39115;59.332;18.034;2022-10-26T05:55:04;100446.94;;;9.36;71.08
51715;BME280;39115;59.332;18.034;2022-10-26T05:57:29;100462.63;;;9.39;71.19
51715;BME280;39115;59.332;18.034;2022-10-26T05:59:55;100448.47;;;9.38;71.13
51715;BME280;39115;59.332;18.034;2022-10-26T06:02:25;100468.03;;;9.37;70.99
51715;BME280;39115;59.332;18.034;2022-10-26T06:04:54;100470.84;;;9.36;71.12
51715;BME280;39115;59.332;18.034;2022-10-26T06:07:22;100470.00;;;9.35;70.97
51715;BME280;39115;59.332;18.034;2022-10-26T06:09:47;100475.44;;;9.33;71.29
51715;BME280;39115;59.332;18.034;2022-10-26T06:12:13;100471.13;;;9.32;71.00
51715;BME280;39115;59.332;18.034;2022-10-26T06:14:39;100471.97;;;9.33;71.15
51715;BME280;39115;59.332;18.034;2022-10-26T06:17:15;100486.22;;;9.32;71.41
51715;BME280;39115;59.332;18.034;2022-10-26T06:30:26;100507.59;;;9.30;71.29
51715;BME280;39115;59.332;18.034;2022-10-26T06:32:51;100501.44;;;9.30;71.44
51715;BME280;39115;59.332;18.034;2022-10-26T06:38:06;100508.56;;;9.29;71.02
51715;BME280;39115;59.332;18.034;2022-10-26T06:40:34;100518.22;;;9.30;70.94
51715;BME280;39115;59.332;18.034;2022-10-26T06:43:00;100519.19;;;9.29;71.22
51715;BME280;39115;59.332;18.034;2022-10-26T06:45:26;100525.34;;;9.30;71.67
51715;BME280;39115;59.332;18.034;2022-10-26T06:48:09;100513.75;;;9.31;71.27
51715;BME280;39115;59.332;18.034;2022-10-26T06:50:37;100517.25;;;9.31;71.42
51715;BME280;39115;59.332;18.034;2022-10-26T06:55:41;100529.03;;;9.39;71.15
51715;BME280;39115;59.332;18.034;2022-10-26T06:58:16;100522.75;;;9.40;71.09
51715;BME280;39115;59.332;18.034;2022-10-26T07:00:43;100536.03;;;9.40;70.75
51715;BME280;39115;59.332;18.034;2022-10-26T07:03:08;100531.69;;;9.39;71.10
51715;BME280;39115;59.332;18.034;2022-10-26T07:05:34;100538.81;;;9.38;70.73
51715;BME280;39115;59.332;18.034;2022-10-26T07:07:59;100539.50;;;9.40;70.96
51715;BME280;39115;59.332;18.034;2022-10-26T07:10:24;100547.34;;;9.42;71.16
51715;BME280;39115;59.332;18.034;2022-10-26T07:12:49;100546.38;;;9.43;70.73
51715;BME280;39115;59.332;18.034;2022-10-26T07:15:15;100552.56;;;9.43;70.91
51715;BME280;39115;59.332;18.034;2022-10-26T07:17:41;100548.91;;;9.44;71.49
51715;BME280;39115;59.332;18.034;2022-10-26T07:20:06;100548.91;;;9.44;70.79
51715;BME280;39115;59.332;18.034;2022-10-26T07:22:32;100557.72;;;9.45;70.92
51715;BME280;39115;59.332;18.034;2022-10-26T07:24:57;100564.88;;;9.44;70.75
51715;BME280;39115;59.332;18.034;2022-10-26T07:27:22;100562.06;;;9.46;71.25
51715;BME280;39115;59.332;18.034;2022-10-26T07:29:48;100562.22;;;9.44;70.96
51715;BME280;39115;59.332;18.034;2022-10-26T07:32:13;100572.13;;;9.42;70.64
51715;BME280;39115;59.332;18.034;2022-10-26T07:34:38;100574.06;;;9.40;70.79
51715;BME280;39115;59.332;18.034;2022-10-26T07:37:04;100580.22;;;9.41;70.90
51715;BME280;39115;59.332;18.034;2022-10-26T07:39:29;100583.47;;;9.44;71.28
51715;BME280;39115;59.332;18.034;2022-10-26T07:41:56;100594.66;;;9.48;71.15
51715;BME280;39115;59.332;18.034;2022-10-26T07:44:22;100594.53;;;9.49;71.12
51715;BME280;39115;59.332;18.034;2022-10-26T07:46:47;100582.94;;;9.51;70.53
51715;BME280;39115;59.332;18.034;2022-10-26T07:49:12;100586.16;;;9.54;71.00
51715;BME280;39115;59.332;18.034;2022-10-26T07:51:38;100589.41;;;9.58;71.27
51715;BME280;39115;59.332;18.034;2022-10-26T07:54:03;100603.41;;;9.60;71.12
51715;BME280;39115;59.332;18.034;2022-10-26T07:56:28;100595.28;;;9.61;70.62
51715;BME280;39115;59.332;18.034;2022-10-26T07:58:54;100606.50;;;9.65;70.61
51715;BME280;39115;59.332;18.034;2022-10-26T08:01:19;100623.16;;;9.67;70.66
51715;BME280;39115;59.332;18.034;2022-10-26T08:03:44;100611.66;;;9.67;70.91
51715;BME280;39115;59.332;18.034;2022-10-26T08:06:10;100612.53;;;9.67;71.03
51715;BME280;39115;59.332;18.034;2022-10-26T08:08:35;100614.19;;;9.68;70.66
51715;BME280;39115;59.332;18.034;2022-10-26T08:11:01;100619.25;;;9.71;71.05
51715;BME280;39115;59.332;18.034;2022-10-26T08:13:26;100616.44;;;9.73;70.86
51715;BME280;39115;59.332;18.034;2022-10-26T08:15:56;100627.94;;;9.73;70.88
51715;BME280;39115;59.332;18.034;2022-10-26T08:18:21;100622.63;;;9.73;70.54
51715;BME280;39115;59.332;18.034;2022-10-26T08:20:46;100625.16;;;9.75;71.27
51715;BME280;39115;59.332;18.034;2022-10-26T08:23:12;100623.06;;;9.78;70.90
51715;BME280;39115;59.332;18.034;2022-10-26T08:25:37;100623.78;;;9.80;70.49
51715;BME280;39115;59.332;18.034;2022-10-26T08:28:02;100627.84;;;9.85;70.37
51715;BME280;39115;59.332;18.034;2022-10-26T08:30:31;100628.69;;;9.85;70.45
51715;BME280;39115;59.332;18.034;2022-10-26T08:32:57;100634.84;;;9.86;71.00
51715;BME280;39115;59.332;18.034;2022-10-26T08:35:23;100638.75;;;9.81;70.86
51715;BME280;39115;59.332;18.034;2022-10-26T08:37:48;100646.28;;;9.76;70.81
51715;BME280;39115;59.332;18.034;2022-10-26T08:40:14;100648.50;;;9.71;70.97
51715;BME280;39115;59.332;18.034;2022-10-26T08:42:42;100646.94;;;9.69;71.00
51715;BME280;39115;59.332;18.034;2022-10-26T08:45:54;100647.78;;;9.69;70.49
51715;BME280;39115;59.332;18.034;2022-10-26T08:47:55;100649.75;;;9.67;70.58
51715;BME280;39115;59.332;18.034;2022-10-26T08:50:26;100650.56;;;9.68;70.38
51715;BME280;39115;59.332;18.034;2022-10-26T08:55:33;100667.81;;;9.73;70.78
51715;BME280;39115;59.332;18.034;2022-10-26T08:58:02;100663.31;;;9.74;70.65
51715;BME280;39115;59.332;18.034;2022-10-26T09:00:30;100673.13;;;9.73;71.02
51715;BME280;39115;59.332;18.034;2022-10-26T09:02:56;100665.00;;;9.75;70.66
51715;BME280;39115;59.332;18.034;2022-10-26T09:05:22;100665.97;;;9.74;70.93
51715;BME280;39115;59.332;18.034;2022-10-26T09:08:02;100672.28;;;9.73;70.92
51715;BME280;39115;59.332;18.034;2022-10-26T09:10:35;100673.72;;;9.77;71.23
51715;BME280;39115;59.332;18.034;2022-10-26T09:13:05;100675.41;;;9.78;70.63
51715;BME280;39115;59.332;18.034;2022-10-26T09:26:01;100704.50;;;9.79;70.64
51715;BME280;39115;59.332;18.034;2022-10-26T09:28:29;100701.84;;;9.79;70.97
51715;BME280;39115;59.332;18.034;2022-10-26T09:30:57;100693.88;;;9.79;71.08
51715;BME280;39115;59.332;18.034;2022-10-26T09:33:23;100711.50;;;9.80;70.77
51715;BME280;39115;59.332;18.034;2022-10-26T09:35:50;100700.00;;;9.80;71.09
51715;BME280;39115;59.332;18.034;2022-10-26T09:40:58;100692.91;;;9.80;71.20
51715;BME280;39115;59.332;18.034;2022-10-26T09:43:27;100688.56;;;9.79;70.44
51715;BME280;39115;59.332;18.034;2022-10-26T09:45:53;100702.56;;;9.81;70.94
51715;BME280;39115;59.332;18.034;2022-10-26T09:48:30;100711.22;;;9.84;70.97
51715;BME280;39115;59.332;18.034;2022-10-26T09:50:58;100712.91;;;9.85;70.90
51715;BME280;39115;59.332;18.034;2022-10-26T09:53:24;100712.81;;;9.86;71.06
51715;BME280;39115;59.332;18.034;2022-10-26T09:55:50;100725.00;;;9.89;71.01
51715;BME280;39115;59.332;18.034;2022-10-26T09:58:23;100730.16;;;9.90;70.98
51715;BME280;39115;59.332;18.034;2022-10-26T10:00:50;100727.25;;;9.93;70.87
51715;BME280;39115;59.332;18.034;2022-10-26T10:03:20;100727.94;;;9.95;70.75
51715;BME280;39115;59.332;18.034;2022-10-26T10:05:46;100719.97;;;9.95;70.74
51715;BME280;39115;59.332;18.034;2022-10-26T10:13:34;100725.19;;;9.97;70.60
51715;BME280;39115;59.332;18.034;2022-10-26T10:18:34;100725.63;;;10.02;70.58
51715;BME280;39115;59.332;18.034;2022-10-26T10:21:00;100738.78;;;10.04;70.81
51715;BME280;39115;59.332;18.034;2022-10-26T10:23:28;100738.78;;;10.04;70.52
51715;BME280;39115;59.332;18.034;2022-10-26T10:25:57;100734.19;;;10.06;70.74
51715;BME280;39115;59.332;18.034;2022-10-26T10:28:23;100740.34;;;10.06;70.10
51715;BME280;39115;59.332;18.034;2022-10-26T10:30:53;100738.38;;;10.08;70.70
51715;BME280;39115;59.332;18.034;2022-10-26T10:33:30;100730.00;;;10.13;70.52
51715;BME280;39115;59.332;18.034;2022-10-26T10:35:56;100730.00;;;10.13;70.71
51715;BME280;39115;59.332;18.034;2022-10-26T10:38:22;100729.19;;;10.12;70.46
51715;BME280;39115;59.332;18.034;2022-10-26T10:40:51;100737.88;;;10.15;70.30
51715;BME280;39115;59.332;18.034;2022-10-26T10:43:17;100751.19;;;10.15;70.70
51715;BME280;39115;59.332;18.034;2022-10-26T10:45:47;100757.47;;;10.13;70.37
51715;BME280;39115;59.332;18.034;2022-10-26T10:50:49;100769.50;;;10.18;70.67
51715;BME280;39115;59.332;18.034;2022-10-26T10:53:17;100771.06;;;10.20;70.28
51715;BME280;39115;59.332;18.034;2022-10-26T10:56:05;100776.38;;;10.20;70.33
51715;BME280;39115;59.332;18.034;2022-10-26T10:58:36;100778.34;;;10.18;70.14
51715;BME280;39115;59.332;18.034;2022-10-26T11:01:05;100780.28;;;10.16;70.33
51715;BME280;39115;59.332;18.034;2022-10-26T11:11:03;100786.34;;;10.18;70.18
51715;BME280;39115;59.332;18.034;2022-10-26T11:13:34;100798.78;;;10.18;70.59
51715;BME280;39115;59.332;18.034;2022-10-26T11:16:05;100797.38;;;10.13;70.45
51715;BME280;39115;59.332;18.034;2022-10-26T11:18:40;100794.38;;;10.07;70.50
51715;BME280;39115;59.332;18.034;2022-10-26T11:21:13;100814.25;;;10.03;70.77
51715;BME280;39115;59.332;18.034;2022-10-26T11:23:42;100803.03;;;9.99;70.42
51715;BME280;39115;59.332;18.034;2022-10-26T11:26:17;100809.56;;;9.95;70.62
51715;BME280;39115;59.332;18.034;2022-10-26T11:31:12;100804.22;;;9.95;70.79
51715;BME280;39115;59.332;18.034;2022-10-26T11:33:47;100811.25;;;9.96;70.89
51715;BME280;39115;59.332;18.034;2022-10-26T11:36:17;100803.13;;;9.97;70.72
51715;BME280;39115;59.332;18.034;2022-10-26T11:38:54;100806.66;;;9.98;70.41
51715;BME280;39115;59.332;18.034;2022-10-26T11:41:30;100819.81;;;10.00;70.44
51715;BME280;39115;59.332;18.034;2022-10-26T11:44:10;100814.34;;;10.01;70.69
51715;BME280;39115;59.332;18.034;2022-10-26T11:46:41;100816.19;;;10.01;70.69
51715;BME280;39115;59.332;18.034;2022-10-26T11:51:37;100819.94;;;9.98;70.36
51715;BME280;39115;59.332;18.034;2022-10-26T11:54:11;100826.34;;;9.95;70.53
51715;BME280;39115;59.332;18.034;2022-10-26T11:56:46;100836.97;;;9.95;71.10
51715;BME280;39115;59.332;18.034;2022-10-26T11:59:14;100842.28;;;9.95;70.84
51715;BME280;39115;59.332;18.034;2022-10-26T12:01:42;100852.09;;;9.95;70.75
51715;BME280;39115;59.332;18.034;2022-10-26T12:04:07;100851.25;;;9.94;70.53
51715;BME280;39115;59.332;18.034;2022-10-26T12:06:33;100841.59;;;9.93;70.77
51715;BME280;39115;59.332;18.034;2022-10-26T12:09:07;100847.75;;;9.94;70.49
51715;BME280;39115;59.332;18.034;2022-10-26T12:19:22;100846.16;;;10.03;70.61
51715;BME280;39115;59.332;18.034;2022-10-26T12:21:50;100863.06;;;10.02;70.69
51715;BME280;39115;59.332;18.034;2022-10-26T12:26:54;100854.50;;;9.98;70.24
51715;BME280;39115;59.332;18.034;2022-10-26T12:29:31;100854.75;;;9.95;70.90
51715;BME280;39115;59.332;18.034;2022-10-26T12:31:57;100853.78;;;9.96;70.78
51715;BME280;39115;59.332;18.034;2022-10-26T12:39:29;100842.91;;;9.99;70.30
51715;BME280;39115;59.332;18.034;2022-10-26T12:44:31;100845.28;;;10.02;70.94
51715;BME280;39115;59.332;18.034;2022-10-26T12:46:57;100840.84;;;10.03;70.49
51715;BME280;39115;59.332;18.034;2022-10-26T12:52:33;100862.56;;;10.08;70.63
51715;BME280;39115;59.332;18.034;2022-10-26T12:55:12;100859.91;;;10.08;70.51
51715;BME280;39115;59.332;18.034;2022-10-26T13:00:12;100863.88;;;10.13;70.59
51715;BME280;39115;59.332;18.034;2022-10-26T13:08:03;100874.13;;;10.18;70.18
51715;BME280;39115;59.332;18.034;2022-10-26T13:10:30;100860.81;;;10.18;70.43
51715;BME280;39115;59.332;18.034;2022-10-26T13:12:57;100876.88;;;10.17;70.68
51715;BME280;39115;59.332;18.034;2022-10-26T13:15:27;100874.38;;;10.15;70.33
51715;BME280;39115;59.332;18.034;2022-10-26T13:17:54;100885.97;;;10.14;70.25
51715;BME280;39115;59.332;18.034;2022-10-26T13:20:20;100879.09;;;10.11;70.47
51715;BME280;39115;59.332;18.034;2022-10-26T13:22:46;100884.56;;;10.10;70.14
51715;BME280;39115;59.332;18.034;2022-10-26T13:25:22;100893.50;;;10.09;70.54
51715;BME280;39115;59.332;18.034;2022-10-26T13:32:57;100888.13;;;9.99;70.27
51715;BME280;39115;59.332;18.034;2022-10-26T13:35:23;100895.59;;;9.94;70.59
51715;BME280;39115;59.332;18.034;2022-10-26T13:37:51;100898.78;;;9.88;70.59
51715;BME280;39115;59.332;18.034;2022-10-26T13:40:19;100901.69;;;9.85;70.73
51715;BME280;39115;59.332;18.034;2022-10-26T13:42:45;100903.50;;;9.84;70.80
51715;BME280;39115;59.332;18.034;2022-10-26T13:45:21;100908.09;;;9.82;70.39
51715;BME280;39115;59.332;18.034;2022-10-26T13:47:57;100900.97;;;9.83;70.90
51715;BME280;39115;59.332;18.034;2022-10-26T13:50:27;100895.78;;;9.81;70.66
51715;BME280;39115;59.332;18.034;2022-10-26T13:52:58;100907.38;;;9.80;70.61
51715;BME280;39115;59.332;18.034;2022-10-26T14:00:24;100909.72;;;9.73;70.42
51715;BME280;39115;59.332;18.034;2022-10-26T14:02:49;100911.50;;;9.73;70.64
51715;BME280;39115;59.332;18.034;2022-10-26T14:05:15;100913.47;;;9.71;70.39
51715;BME280;39115;59.332;18.034;2022-10-26T14:10:22;100921.69;;;9.68;70.75
51715;BME280;39115;59.332;18.034;2022-10-26T14:12:49;100922.63;;;9.67;70.38
51715;BME280;39115;59.332;18.034;2022-10-26T14:15:14;100928.91;;;9.65;70.61
51715;BME280;39115;59.332;18.034;2022-10-26T14:17:40;100929.78;;;9.66;70.41
51715;BME280;39115;59.332;18.034;2022-10-26T14:20:06;100929.88;;;9.64;70.64
51715;BME280;39115;59.332;18.034;2022-10-26T14:22:40;100933.53;;;9.63;70.81
51715;BME280;39115;59.332;18.034;2022-10-26T14:25:21;100937.84;;;9.64;70.31
51715;BME280;39115;59.332;18.034;2022-10-26T14:27:46;100942.56;;;9.61;70.60
51715;BME280;39115;59.332;18.034;2022-10-26T14:30:26;100934.59;;;9.61;70.93
51715;BME280;39115;59.332;18.034;2022-10-26T14:32:51;100935.84;;;9.57;70.57
51715;BME280;39115;59.332;18.034;2022-10-26T14:35:18;100941.97;;;9.57;70.78
51715;BME280;39115;59.332;18.034;2022-10-26T14:40:15;100945.38;;;9.59;70.62
51715;BME280;39115;59.332;18.034;2022-10-26T14:42:41;100952.50;;;9.59;70.42
51715;BME280;39115;59.332;18.034;2022-10-26T14:45:45;100948.03;;;9.59;70.30
51715;BME280;39115;59.332;18.034;2022-10-26T14:48:03;100956.88;;;9.60;70.24
51715;BME280;39115;59.332;18.034;2022-10-26T14:50:30;100963.00;;;9.60;70.76
51715;BME280;39115;59.332;18.034;2022-10-26T14:55:27;100964.25;;;9.56;70.13
51715;BME280;39115;59.332;18.034;2022-10-26T14:58:05;100971.22;;;9.57;70.63